الصفحة الرئيسية
METAR-TAF:

METAR-TAF

مطار :

مطار دمشق الدولي

دمشق, سوريا

دائرة عرض: 33-25N, خط طول: 036-31E, ارتفاع: 608 متر

مراقبة الطقس الحالي

تاريخ ووقت الإصدار 31 دقيقة قبل الساعة 18:00UTC
ريح 8 عقدة من الجنوب الغربي
درجة الحرارة 31°درجة مئوية
الرطوبة 24%
ضغط 1006 hPa
الرؤية 10 كم أو أكثر
الغيوم لا تقل 1500 م ولا وجود لمزنة ركامية السحاب الأسود

METAR: OSDI 021800Z 23008KT CAVOK 31/08 Q1006

زمن: 21:31 (18:31 UTC)

توقعات

تاريخ ووقت الإصدار 3ساعات و 31 دقيقة قبل الساعة 15:00UTC
التوقعات صالحة من02 الساعة 18 UTC إلى 03 الساعة 24 UTC
ريح 3 عقدةمن اتجاهات متغيرة
الرؤية 10 كم أو أكثر
الغيوم لا تقل 1500 م ولا وجود لمزنة ركامية السحاب الأسود

TAF: OSDI 021500Z 0218/0324 VRB03KT CAVOK

أرصاد الطقس والتوقعات من أكثر من 4000 مطار (تقارير الطقس للمطار METAR والتنبؤ بالطقس بالمطارTAF).

المحطات المتاحة هي النقط الصفراء والحمراء على الخريطة.

حرك المؤشر فوق النقطة لمعرفة اسم المحطة.

ثم انقر لمعرفة أرصاد وتوقعات الطقس.

لتغيير الخارطة: اضغط على الأزرار الخضراء مع رمز الصليب الأسود للتكبير. على الزر الأخضر مع شرطة للتصغير، أو على الأسهم الخضراء للخرائط المجاورة.


METAR-TAF: